createdAt,value
2022-09-06T00:01:46.601Z,28.41
2022-09-06T00:04:16.409Z,29.16
2022-09-06T00:06:46.217Z,29.05
2022-09-06T00:09:15.952Z,28.59
2022-09-06T00:11:48.291Z,28.92
2022-09-06T00:14:18.079Z,28.34
2022-09-06T00:16:47.882Z,28.65
2022-09-06T00:19:17.617Z,29.03
2022-09-06T00:21:47.369Z,28.52
2022-09-06T00:24:17.140Z,28.75
2022-09-06T00:26:49.546Z,29.50
2022-09-06T00:29:19.319Z,29.06
2022-09-06T00:31:49.102Z,28.68
2022-09-06T00:34:18.840Z,28.97
2022-09-06T00:36:48.667Z,28.95
2022-09-06T00:39:18.444Z,29.15
2022-09-06T00:41:50.866Z,29.42
2022-09-06T00:44:20.622Z,29.00
2022-09-06T00:46:52.769Z,29.18
2022-09-06T00:49:27.341Z,29.43
2022-09-06T00:52:01.480Z,29.43
2022-09-06T00:54:31.710Z,29.12
2022-09-06T00:57:04.875Z,29.37
2022-09-06T00:59:40.640Z,29.15
2022-09-06T01:02:10.531Z,29.66
2022-09-06T01:04:43.134Z,29.31
2022-09-06T01:07:20.516Z,29.61
2022-09-06T01:10:05.265Z,29.42
2022-09-06T01:12:47.333Z,29.25
2022-09-06T01:15:39.780Z,29.18
2022-09-06T01:18:23.831Z,29.29
2022-09-06T01:21:11.043Z,29.32
2022-09-06T01:24:05.600Z,29.64
2022-09-06T01:26:54.645Z,29.97
2022-09-06T01:29:33.120Z,29.70
2022-09-06T01:32:13.012Z,29.56
2022-09-06T01:34:48.564Z,29.57
2022-09-06T01:37:22.583Z,29.98
2022-09-06T01:39:52.477Z,29.75
2022-09-06T01:42:28.249Z,29.45
2022-09-06T01:45:04.384Z,29.42
2022-09-06T01:47:42.163Z,29.70
2022-09-06T01:50:34.389Z,30.12
2022-09-06T01:53:19.213Z,30.30
2022-09-06T01:55:58.695Z,30.14
2022-09-06T01:58:56.883Z,30.43
2022-09-06T02:01:34.301Z,30.40
2022-09-06T02:04:13.081Z,30.50
2022-09-06T02:06:47.722Z,30.54
2022-09-06T02:09:20.831Z,30.58
2022-09-06T02:11:54.423Z,30.49
2022-09-06T02:14:31.400Z,30.93
2022-09-06T02:17:05.852Z,31.19
2022-09-06T02:19:39.615Z,31.04
2022-09-06T02:22:13.032Z,31.57
2022-09-06T02:24:46.967Z,31.20
2022-09-06T02:27:17.297Z,31.68
2022-09-06T02:29:47.599Z,31.97
2022-09-06T02:32:23.460Z,32.19
2022-09-06T02:34:54.825Z,31.99
2022-09-06T02:37:26.911Z,32.27
2022-09-06T02:39:58.238Z,32.20
2022-09-06T02:42:29.022Z,32.69
2022-09-06T02:44:58.781Z,32.56
2022-09-06T02:47:31.209Z,32.96
2022-09-06T02:50:00.948Z,33.00
2022-09-06T02:52:31.028Z,33.04
2022-09-06T02:55:00.836Z,33.24
2022-09-06T02:57:30.633Z,33.11
2022-09-06T03:00:00.410Z,33.54
2022-09-06T03:02:32.906Z,33.28
2022-09-06T03:05:03.030Z,33.19
2022-09-06T03:07:32.844Z,33.44
2022-09-06T03:10:02.609Z,33.45
2022-09-06T03:12:32.408Z,33.91
2022-09-06T03:15:02.209Z,33.93
2022-09-06T03:17:34.631Z,33.99
2022-09-06T03:20:04.551Z,33.85
2022-09-06T03:22:34.421Z,34.26
2022-09-06T03:25:04.235Z,33.91
2022-09-06T03:27:34.059Z,34.04
2022-09-06T03:30:03.823Z,34.20
2022-09-06T03:32:36.328Z,34.23
2022-09-06T03:35:06.380Z,34.17
2022-09-06T03:37:36.358Z,34.44
2022-09-06T03:40:06.795Z,34.58
2022-09-06T03:42:40.703Z,34.67
2022-09-06T03:45:11.734Z,34.52
2022-09-06T03:47:44.182Z,34.63
2022-09-06T03:50:14.095Z,34.63
2022-09-06T03:52:43.902Z,34.42
2022-09-06T03:55:13.762Z,34.61
2022-09-06T03:57:43.567Z,34.92
2022-09-06T04:00:14.722Z,34.87
2022-09-06T04:02:47.224Z,34.81
2022-09-06T04:05:17.167Z,34.76
2022-09-06T04:07:46.955Z,34.98
2022-09-06T04:10:16.768Z,34.78
2022-09-06T04:12:47.798Z,34.95
2022-09-06T04:15:17.714Z,34.91
2022-09-06T04:17:50.375Z,35.58
2022-09-06T04:20:20.403Z,34.97
2022-09-06T04:22:50.339Z,35.10
2022-09-06T04:25:20.086Z,35.19
2022-09-06T04:27:49.862Z,34.90
2022-09-06T04:30:19.834Z,35.15
2022-09-06T04:32:52.266Z,35.29
2022-09-06T04:35:25.214Z,35.40
2022-09-06T04:37:54.936Z,35.15
2022-09-06T04:40:24.662Z,35.59
2022-09-06T04:42:54.451Z,35.73
2022-09-06T04:45:24.960Z,35.63
2022-09-06T04:47:57.550Z,35.93
2022-09-06T04:50:27.271Z,35.37
2022-09-06T04:53:07.568Z,35.63
2022-09-06T04:55:37.685Z,36.39
2022-09-06T04:58:07.938Z,35.61
2022-09-06T05:00:38.998Z,35.51
2022-09-06T05:03:11.394Z,35.87
2022-09-06T05:05:44.267Z,35.71
2022-09-06T05:08:14.023Z,35.70
2022-09-06T05:10:43.800Z,35.74
2022-09-06T05:13:13.559Z,35.19
2022-09-06T05:15:43.389Z,35.43
2022-09-06T05:18:16.310Z,34.80
2022-09-06T05:20:46.089Z,34.97
2022-09-06T05:23:15.958Z,35.02
2022-09-06T05:25:45.867Z,35.08
2022-09-06T05:28:15.784Z,34.66
2022-09-06T05:30:45.880Z,34.91
2022-09-06T05:33:26.010Z,34.82
2022-09-06T05:35:56.168Z,34.70
2022-09-06T05:38:29.248Z,34.79
2022-09-06T05:40:59.677Z,35.10
2022-09-06T05:43:29.410Z,34.58
2022-09-06T05:45:59.211Z,34.52
2022-09-06T05:48:36.693Z,34.29
2022-09-06T05:51:09.080Z,34.09
2022-09-06T05:53:39.511Z,34.17
2022-09-06T05:56:10.507Z,33.84
2022-09-06T05:58:41.073Z,33.97
2022-09-06T06:01:17.990Z,34.07
2022-09-06T06:03:57.169Z,33.83
2022-09-06T06:06:28.449Z,33.81
2022-09-06T06:08:58.237Z,33.67
2022-09-06T06:11:29.692Z,33.29
2022-09-06T06:13:59.620Z,33.34
2022-09-06T06:16:29.737Z,33.41
2022-09-06T06:19:02.200Z,33.45
2022-09-06T06:21:33.131Z,33.33
2022-09-06T06:24:05.729Z,33.70
2022-09-06T06:26:37.833Z,33.64
2022-09-06T06:29:09.717Z,33.21
2022-09-06T06:31:41.274Z,33.25
2022-09-06T06:34:13.654Z,33.19
2022-09-06T06:36:44.423Z,33.53
2022-09-06T06:39:14.167Z,32.90
2022-09-06T06:41:44.250Z,33.17
2022-09-06T06:44:40.771Z,33.04
2022-09-06T06:47:10.600Z,32.89
2022-09-06T06:49:43.055Z,32.52
2022-09-06T06:52:13.040Z,32.27
2022-09-06T06:54:42.808Z,32.25
2022-09-06T06:57:12.765Z,32.12
2022-09-06T06:59:42.621Z,32.33
2022-09-06T07:02:12.738Z,32.27
2022-09-06T07:04:45.200Z,32.40
2022-09-06T07:07:30.368Z,31.87
2022-09-06T07:12:50.422Z,32.21
2022-09-06T07:15:20.421Z,31.94
2022-09-06T07:17:50.197Z,31.69
2022-09-06T07:20:23.238Z,32.38
2022-09-06T07:25:51.789Z,32.33
2022-09-06T07:28:21.664Z,32.27
2022-09-06T07:30:51.617Z,32.16
2022-09-06T07:33:21.775Z,32.19
2022-09-06T07:36:01.873Z,32.63
2022-09-06T07:38:32.644Z,31.65
2022-09-06T07:41:04.588Z,31.92
2022-09-06T07:43:35.161Z,32.45
2022-09-06T07:46:06.764Z,32.28
2022-09-06T07:48:38.098Z,32.10
2022-09-06T07:51:12.700Z,32.42
2022-09-06T07:53:44.626Z,32.76
2022-09-06T07:56:15.308Z,32.67
2022-09-06T07:58:45.362Z,32.97
2022-09-06T08:01:27.808Z,32.53
2022-09-06T08:03:57.804Z,31.92
2022-09-06T08:09:21.792Z,32.31
2022-09-06T08:11:52.929Z,32.19
2022-09-06T08:14:22.845Z,31.85
2022-09-06T08:16:52.995Z,32.37
2022-09-06T08:19:22.767Z,32.48
2022-09-06T08:21:59.331Z,32.46
2022-09-06T08:24:29.482Z,32.76
2022-09-06T08:26:59.210Z,32.75
2022-09-06T08:29:29.104Z,32.63
2022-09-06T08:31:58.917Z,32.30
2022-09-06T08:34:28.717Z,32.83
2022-09-06T08:37:01.093Z,33.07
2022-09-06T08:39:30.957Z,33.07
2022-09-06T08:42:03.828Z,32.40
2022-09-06T08:44:55.306Z,32.49
2022-09-06T08:47:26.363Z,32.28
2022-09-06T08:49:59.469Z,32.25
2022-09-06T08:52:49.721Z,32.79
2022-09-06T08:55:39.693Z,32.70
2022-09-06T08:58:32.329Z,32.49
2022-09-06T09:01:06.245Z,32.39
2022-09-06T09:03:39.435Z,32.25
2022-09-06T09:06:12.019Z,32.20
2022-09-06T09:08:49.601Z,32.11
2022-09-06T09:11:22.024Z,32.48
2022-09-06T09:13:57.229Z,32.14
2022-09-06T09:16:27.272Z,31.93
2022-09-06T09:19:01.678Z,31.84
2022-09-06T09:21:35.791Z,32.28
2022-09-06T09:24:10.520Z,32.29
2022-09-06T09:26:50.598Z,32.44
2022-09-06T09:29:25.360Z,32.31
2022-09-06T09:31:58.420Z,31.85
2022-09-06T09:34:33.941Z,31.81
2022-09-06T09:40:07.902Z,31.52
2022-09-06T09:42:39.901Z,31.79
2022-09-06T09:45:26.057Z,31.50
2022-09-06T09:47:56.522Z,31.39
2022-09-06T09:50:30.239Z,31.66
2022-09-06T09:53:10.624Z,31.67
2022-09-06T09:55:44.202Z,31.55
2022-09-06T09:58:24.482Z,31.56
2022-09-06T10:01:13.563Z,31.71
2022-09-06T10:09:36.357Z,31.76
2022-09-06T10:12:09.800Z,31.61
2022-09-06T10:14:47.631Z,31.46
2022-09-06T10:17:32.984Z,31.56
2022-09-06T10:20:07.823Z,31.10
2022-09-06T10:22:52.131Z,31.06
2022-09-06T10:25:44.989Z,30.81
2022-09-06T10:28:36.873Z,30.99
2022-09-06T10:31:52.642Z,31.26
2022-09-06T10:34:52.343Z,31.72
2022-09-06T10:37:36.460Z,31.47
2022-09-06T10:40:10.650Z,31.97
2022-09-06T10:42:50.457Z,31.85
2022-09-06T10:45:47.520Z,32.01
2022-09-06T10:48:24.238Z,32.06
2022-09-06T10:50:57.423Z,32.26
2022-09-06T10:53:37.505Z,32.02
2022-09-06T10:56:13.550Z,32.59
2022-09-06T11:02:03.611Z,32.40
2022-09-06T11:07:31.744Z,32.15
2022-09-06T11:10:07.978Z,32.21
2022-09-06T11:12:44.828Z,32.42
2022-09-06T11:15:16.720Z,31.98
2022-09-06T11:17:54.221Z,32.02
2022-09-06T11:20:32.161Z,31.85
2022-09-06T11:23:29.625Z,32.25
2022-09-06T11:26:24.403Z,32.30
2022-09-06T11:28:57.731Z,32.21
2022-09-06T11:34:27.512Z,31.53
2022-09-06T11:36:59.678Z,31.68
2022-09-06T11:42:43.024Z,31.75
2022-09-06T11:45:21.844Z,31.78
2022-09-06T11:47:53.460Z,31.66
2022-09-06T11:51:03.777Z,31.72
2022-09-06T11:53:36.075Z,31.96
2022-09-06T11:56:28.579Z,32.14
2022-09-06T11:59:02.685Z,31.95
2022-09-06T12:01:41.428Z,31.90
2022-09-06T12:04:12.630Z,32.52
2022-09-06T12:06:46.215Z,32.63
2022-09-06T12:09:35.123Z,32.51
2022-09-06T12:12:05.708Z,32.39
2022-09-06T12:14:39.785Z,32.54
2022-09-06T12:17:48.207Z,32.43
2022-09-06T12:20:54.423Z,32.79
2022-09-06T12:23:46.175Z,33.33
2022-09-06T12:26:35.922Z,33.10
2022-09-06T12:29:13.246Z,33.45
2022-09-06T12:31:46.174Z,33.65
2022-09-06T12:34:20.544Z,33.26
2022-09-06T12:36:54.434Z,33.84
2022-09-06T12:39:24.328Z,33.11
2022-09-06T12:41:57.806Z,33.31
2022-09-06T12:44:36.077Z,33.52
2022-09-06T12:47:12.672Z,33.70
2022-09-06T12:49:42.667Z,33.69
2022-09-06T12:52:14.861Z,33.59
2022-09-06T12:54:48.615Z,33.40
2022-09-06T12:57:22.972Z,33.29
2022-09-06T12:59:58.052Z,33.63
2022-09-06T13:02:38.362Z,33.26
2022-09-06T13:05:11.820Z,33.84
2022-09-06T13:07:45.627Z,33.75
2022-09-06T13:10:19.897Z,33.23
2022-09-06T13:12:53.147Z,33.10
2022-09-06T13:15:28.328Z,33.41
2022-09-06T13:18:27.812Z,33.66
2022-09-06T13:21:01.890Z,33.60
2022-09-06T13:23:33.275Z,33.76
2022-09-06T13:26:04.472Z,33.60
2022-09-06T13:28:36.903Z,33.71
2022-09-06T13:31:15.716Z,33.38
2022-09-06T13:33:46.529Z,33.30
2022-09-06T13:36:25.873Z,33.59
2022-09-06T13:38:55.705Z,33.38
2022-09-06T13:41:41.028Z,33.29
2022-09-06T13:44:22.047Z,33.45
2022-09-06T13:46:58.216Z,33.83
2022-09-06T13:49:28.879Z,33.60
2022-09-06T13:52:02.897Z,33.43
2022-09-06T13:54:34.285Z,33.09
2022-09-06T13:57:04.491Z,33.40
2022-09-06T13:59:34.316Z,33.29
2022-09-06T14:02:09.423Z,33.76
2022-09-06T14:04:40.306Z,33.63
2022-09-06T14:07:10.186Z,33.83
2022-09-06T14:09:40.378Z,33.93
2022-09-06T14:12:10.665Z,33.55
2022-09-06T14:14:40.712Z,33.37
2022-09-06T14:17:13.297Z,33.49
2022-09-06T14:19:43.399Z,33.29
2022-09-06T14:22:13.680Z,33.89
2022-09-06T14:24:43.548Z,32.88
2022-09-06T14:27:13.424Z,33.31
2022-09-06T14:29:43.222Z,33.15
2022-09-06T14:32:19.239Z,33.27
2022-09-06T14:34:51.582Z,33.40
2022-09-06T14:37:21.962Z,33.18
2022-09-06T14:39:52.059Z,33.21
2022-09-06T14:42:24.671Z,33.17
2022-09-06T14:44:54.727Z,33.35
2022-09-06T14:47:27.279Z,33.59
2022-09-06T14:49:57.191Z,33.72
2022-09-06T14:52:27.030Z,33.19
2022-09-06T14:54:56.969Z,33.75
2022-09-06T14:57:26.963Z,33.87
2022-09-06T14:59:56.840Z,32.93
2022-09-06T15:02:29.365Z,33.00
2022-09-06T15:04:59.276Z,33.76
2022-09-06T15:07:29.133Z,33.58
2022-09-06T15:09:59.209Z,33.75
2022-09-06T15:12:29.060Z,33.31
2022-09-06T15:14:59.203Z,33.53
2022-09-06T15:17:31.777Z,33.31
2022-09-06T15:20:01.749Z,32.93
2022-09-06T15:22:31.583Z,33.07
2022-09-06T15:25:03.278Z,33.09
2022-09-06T15:27:34.136Z,33.24
2022-09-06T15:30:04.025Z,33.37
2022-09-06T15:32:36.469Z,33.00
2022-09-06T15:35:06.580Z,33.11
2022-09-06T15:37:36.427Z,33.00
2022-09-06T15:40:06.990Z,33.25
2022-09-06T15:42:37.120Z,32.90
2022-09-06T15:45:07.850Z,33.64
2022-09-06T15:47:40.367Z,33.72
2022-09-06T15:50:11.238Z,33.33
2022-09-06T15:52:41.187Z,33.32
2022-09-06T15:55:23.792Z,33.49
2022-09-06T15:57:54.392Z,33.52
2022-09-06T16:00:24.759Z,33.07
2022-09-06T16:02:58.240Z,33.80
2022-09-06T16:08:19.223Z,33.10
2022-09-06T16:10:49.175Z,33.07
2022-09-06T16:13:19.007Z,32.90
2022-09-06T16:15:58.713Z,32.92
2022-09-06T16:18:31.731Z,33.18
2022-09-06T16:21:06.784Z,32.81
2022-09-06T16:23:36.860Z,33.21
2022-09-06T16:26:07.787Z,32.97
2022-09-06T16:28:40.288Z,33.19
2022-09-06T16:31:12.401Z,32.92
2022-09-06T16:33:45.652Z,32.93
2022-09-06T16:36:16.012Z,32.52
2022-09-06T16:38:45.872Z,32.43
2022-09-06T16:41:19.003Z,32.71
2022-09-06T16:43:49.315Z,32.47
2022-09-06T16:46:19.529Z,32.53
2022-09-06T16:48:57.766Z,32.64
2022-09-06T16:51:28.496Z,33.40
2022-09-06T16:53:59.037Z,32.80
2022-09-06T16:56:33.514Z,32.75
2022-09-06T16:59:05.517Z,32.89
2022-09-06T17:01:37.341Z,32.76
2022-09-06T17:04:10.209Z,33.01
2022-09-06T17:06:44.695Z,32.76
2022-09-06T17:09:16.043Z,32.80
2022-09-06T17:11:46.938Z,32.78
2022-09-06T17:14:16.784Z,32.82
2022-09-06T17:16:59.190Z,32.71
2022-09-06T17:19:32.532Z,32.89
2022-09-06T17:22:02.509Z,32.66
2022-09-06T17:24:32.643Z,33.14
2022-09-06T17:27:02.519Z,33.09
2022-09-06T17:29:32.726Z,32.64
2022-09-06T17:32:03.974Z,32.90
2022-09-06T17:34:36.447Z,33.02
2022-09-06T17:37:06.465Z,32.58
2022-09-06T17:39:36.405Z,32.59
2022-09-06T17:42:07.132Z,33.00
2022-09-06T17:44:37.149Z,32.86
2022-09-06T17:47:14.850Z,33.01
2022-09-06T17:49:47.422Z,33.00
2022-09-06T17:52:17.228Z,33.08
2022-09-06T17:54:47.295Z,33.15
2022-09-06T17:57:17.207Z,33.13
2022-09-06T17:59:47.153Z,32.83
2022-09-06T18:02:16.975Z,33.20
2022-09-06T18:04:49.478Z,32.92
2022-09-06T18:07:19.389Z,32.99
2022-09-06T18:09:49.338Z,32.81
2022-09-06T18:12:19.670Z,33.37
2022-09-06T18:14:49.520Z,32.27
2022-09-06T18:17:19.458Z,32.48
2022-09-06T18:19:52.917Z,32.86
2022-09-06T18:22:22.900Z,32.94
2022-09-06T18:24:58.018Z,32.22
2022-09-06T18:27:28.900Z,32.48
2022-09-06T18:29:58.856Z,32.45
2022-09-06T18:32:28.731Z,32.60
2022-09-06T18:35:01.229Z,32.17
2022-09-06T18:37:31.214Z,32.53
2022-09-06T18:40:01.064Z,32.58
2022-09-06T18:42:30.933Z,32.40
2022-09-06T18:45:00.886Z,32.18
2022-09-06T18:47:30.706Z,32.46
2022-09-06T18:50:04.506Z,32.18
2022-09-06T18:52:35.106Z,31.93
2022-09-06T18:55:05.007Z,32.08
2022-09-06T18:57:34.864Z,31.84
2022-09-06T19:00:05.452Z,32.47
2022-09-06T19:02:35.377Z,32.74
2022-09-06T19:05:08.685Z,32.06
2022-09-06T19:07:38.544Z,32.28
2022-09-06T19:10:08.888Z,32.62
2022-09-06T19:12:39.104Z,32.65
2022-09-06T19:15:10.863Z,32.93
2022-09-06T19:17:41.273Z,32.71
2022-09-06T19:20:13.897Z,32.43
2022-09-06T19:22:43.773Z,32.25
2022-09-06T19:25:13.736Z,32.48
2022-09-06T19:27:46.868Z,32.44
2022-09-06T19:30:19.930Z,32.61
2022-09-06T19:32:49.833Z,33.14
2022-09-06T19:35:22.379Z,32.81
2022-09-06T19:37:52.339Z,32.86
2022-09-06T19:40:22.292Z,32.61
2022-09-06T19:42:52.260Z,32.72
2022-09-06T19:45:22.169Z,32.61
2022-09-06T19:47:51.988Z,32.47
2022-09-06T19:50:24.704Z,32.58
2022-09-06T19:52:55.158Z,32.60
2022-09-06T19:55:25.034Z,33.02
2022-09-06T19:57:54.810Z,32.61
2022-09-06T20:00:24.683Z,32.34
2022-09-06T20:02:54.531Z,32.18
2022-09-06T20:05:27.449Z,32.95
2022-09-06T20:07:57.270Z,32.59
2022-09-06T20:10:27.244Z,32.47
2022-09-06T20:12:57.077Z,32.75
2022-09-06T20:15:26.900Z,32.93
2022-09-06T20:17:56.698Z,32.85
2022-09-06T20:20:29.173Z,33.46
2022-09-06T20:22:59.036Z,33.19
2022-09-06T20:25:28.862Z,32.68
2022-09-06T20:27:58.694Z,32.94
2022-09-06T20:30:30.208Z,32.28
2022-09-06T20:33:00.082Z,32.67
2022-09-06T20:35:32.567Z,32.76
2022-09-06T20:38:02.415Z,33.00
2022-09-06T20:40:36.405Z,32.36
2022-09-06T20:43:06.298Z,32.56
2022-09-06T20:45:36.139Z,32.79
2022-09-06T20:48:05.987Z,32.83
2022-09-06T20:50:38.377Z,32.47
2022-09-06T20:53:08.447Z,32.76
2022-09-06T20:55:38.391Z,32.39
2022-09-06T20:58:08.219Z,32.66
2022-09-06T21:00:42.566Z,33.29
2022-09-06T21:03:12.426Z,32.74
2022-09-06T21:05:47.208Z,33.43
2022-09-06T21:08:17.539Z,32.53
2022-09-06T21:10:47.673Z,32.69
2022-09-06T21:13:17.555Z,32.44
2022-09-06T21:15:50.290Z,32.68
2022-09-06T21:18:20.110Z,33.40
2022-09-06T21:20:58.195Z,32.87
2022-09-06T21:23:29.226Z,32.68
2022-09-06T21:26:03.099Z,32.66
2022-09-06T21:28:34.938Z,33.20
2022-09-06T21:31:06.038Z,33.10
2022-09-06T21:33:36.580Z,32.90
2022-09-06T21:36:10.687Z,33.13
2022-09-06T21:38:42.437Z,32.65
2022-09-06T21:41:13.195Z,32.82
2022-09-06T21:43:43.619Z,32.55
2022-09-06T21:46:14.995Z,33.10
2022-09-06T21:48:46.769Z,33.33
2022-09-06T21:51:20.633Z,33.49
2022-09-06T21:53:52.507Z,33.49
2022-09-06T21:56:23.893Z,32.84
2022-09-06T21:58:55.780Z,32.91
2022-09-06T22:01:26.034Z,33.06
2022-09-06T22:03:56.441Z,33.25
2022-09-06T22:06:30.668Z,33.05
2022-09-06T22:09:02.031Z,33.05
2022-09-06T22:11:34.564Z,32.68
2022-09-06T22:14:06.301Z,33.54
2022-09-06T22:16:38.770Z,33.08
2022-09-06T22:19:09.883Z,32.99
2022-09-06T22:21:42.670Z,32.91
2022-09-06T22:24:14.379Z,32.88
2022-09-06T22:26:45.629Z,32.77
2022-09-06T22:29:16.705Z,32.43
2022-09-06T22:31:46.853Z,32.23
2022-09-06T22:34:17.180Z,32.24
2022-09-06T22:36:50.847Z,32.45
2022-09-06T22:39:20.666Z,32.12
2022-09-06T22:41:50.513Z,32.14
2022-09-06T22:44:21.088Z,32.45
2022-09-06T22:46:51.022Z,32.81
2022-09-06T22:49:20.932Z,32.35
2022-09-06T22:51:53.704Z,32.29
2022-09-06T22:54:23.608Z,32.94
2022-09-06T22:56:53.479Z,32.37
2022-09-06T22:59:23.290Z,32.22
2022-09-06T23:01:53.122Z,32.00
2022-09-06T23:04:23.339Z,32.11
2022-09-06T23:06:55.820Z,32.29
2022-09-06T23:09:25.647Z,32.32
2022-09-06T23:11:57.241Z,32.51
2022-09-06T23:14:27.206Z,32.19
2022-09-06T23:16:57.031Z,32.24
2022-09-06T23:19:26.918Z,32.51
2022-09-06T23:21:59.503Z,32.79
2022-09-06T23:24:29.697Z,33.28
2022-09-06T23:27:04.917Z,32.34
2022-09-06T23:29:35.192Z,32.73
2022-09-06T23:32:05.300Z,32.51
2022-09-06T23:34:35.166Z,32.69
2022-09-06T23:37:08.112Z,32.43
2022-09-06T23:39:37.999Z,32.64
2022-09-06T23:42:07.984Z,32.49
2022-09-06T23:44:40.442Z,32.72
2022-09-06T23:47:10.328Z,32.65
2022-09-06T23:49:40.215Z,32.49
2022-09-06T23:52:15.530Z,33.10
2022-09-06T23:54:45.381Z,32.67
2022-09-06T23:57:15.195Z,33.69
2022-09-06T23:59:44.991Z,32.86
